sensor_id;sensor_type;location;lat;lon;timestamp;pressure;altitude;pressure_sealevel;temperature;humidity
18533;BME280;9396;51.510;11.934;2024-03-17T00:00:04;101278.38;;;5.79;96.49
18533;BME280;9396;51.510;11.934;2024-03-17T00:02:31;101280.69;;;5.71;95.83
18533;BME280;9396;51.510;11.934;2024-03-17T00:04:58;101286.16;;;5.68;96.74
18533;BME280;9396;51.510;11.934;2024-03-17T00:07:25;101283.88;;;5.76;96.12
18533;BME280;9396;51.510;11.934;2024-03-17T00:09:50;101288.78;;;5.68;96.77
18533;BME280;9396;51.510;11.934;2024-03-17T00:12:17;101288.19;;;5.77;96.33
18533;BME280;9396;51.510;11.934;2024-03-17T00:14:42;101282.28;;;5.74;96.00
18533;BME280;9396;51.510;11.934;2024-03-17T00:17:10;101270.78;;;5.75;95.89
18533;BME280;9396;51.510;11.934;2024-03-17T00:19:36;101282.09;;;5.77;96.02
18533;BME280;9396;51.510;11.934;2024-03-17T00:22:04;101284.97;;;5.86;95.40
18533;BME280;9396;51.510;11.934;2024-03-17T00:24:29;101282.44;;;5.85;95.88
18533;BME280;9396;51.510;11.934;2024-03-17T00:27:00;101293.69;;;5.74;95.97
18533;BME280;9396;51.510;11.934;2024-03-17T00:29:26;101289.75;;;5.67;96.30
18533;BME280;9396;51.510;11.934;2024-03-17T00:31:53;101290.84;;;5.77;96.48
18533;BME280;9396;51.510;11.934;2024-03-17T00:34:19;101296.19;;;5.90;96.36
18533;BME280;9396;51.510;11.934;2024-03-17T00:36:45;101285.84;;;5.99;95.54
18533;BME280;9396;51.510;11.934;2024-03-17T00:39:12;101301.47;;;5.90;94.47
18533;BME280;9396;51.510;11.934;2024-03-17T00:41:40;101300.56;;;5.77;95.40
18533;BME280;9396;51.510;11.934;2024-03-17T00:44:06;101295.78;;;5.96;95.10
18533;BME280;9396;51.510;11.934;2024-03-17T00:46:32;101297.31;;;5.86;94.39
18533;BME280;9396;51.510;11.934;2024-03-17T00:48:58;101298.84;;;5.76;94.98
18533;BME280;9396;51.510;11.934;2024-03-17T00:51:26;101294.59;;;5.87;94.25
18533;BME280;9396;51.510;11.934;2024-03-17T00:53:52;101300.72;;;5.88;94.76
18533;BME280;9396;51.510;11.934;2024-03-17T00:56:20;101298.00;;;6.02;94.39
18533;BME280;9396;51.510;11.934;2024-03-17T00:58:45;101297.78;;;5.92;93.51
18533;BME280;9396;51.510;11.934;2024-03-17T01:01:12;101297.47;;;5.70;94.59
18533;BME280;9396;51.510;11.934;2024-03-17T01:03:38;101296.81;;;5.67;94.95
18533;BME280;9396;51.510;11.934;2024-03-17T01:06:05;101300.00;;;5.72;95.14
18533;BME280;9396;51.510;11.934;2024-03-17T01:08:30;101301.66;;;5.60;95.06
18533;BME280;9396;51.510;11.934;2024-03-17T01:10:57;101301.28;;;5.79;95.28
18533;BME280;9396;51.510;11.934;2024-03-17T01:13:25;101300.00;;;5.98;93.78
18533;BME280;9396;51.510;11.934;2024-03-17T01:15:52;101293.69;;;6.13;94.19
18533;BME280;9396;51.510;11.934;2024-03-17T01:18:17;101296.00;;;6.18;93.04
18533;BME280;9396;51.510;11.934;2024-03-17T01:20:45;101295.72;;;6.22;92.64
18533;BME280;9396;51.510;11.934;2024-03-17T01:23:11;101293.81;;;6.24;93.04
18533;BME280;9396;51.510;11.934;2024-03-17T01:25:39;101298.34;;;6.22;93.17
18533;BME280;9396;51.510;11.934;2024-03-17T01:28:04;101295.59;;;6.11;92.53
18533;BME280;9396;51.510;11.934;2024-03-17T01:30:33;101302.88;;;6.08;92.20
18533;BME280;9396;51.510;11.934;2024-03-17T01:32:59;101301.09;;;6.08;92.40
18533;BME280;9396;51.510;11.934;2024-03-17T01:35:26;101303.91;;;6.05;91.93
18533;BME280;9396;51.510;11.934;2024-03-17T01:37:51;101295.06;;;6.06;91.86
18533;BME280;9396;51.510;11.934;2024-03-17T01:40:18;101295.56;;;5.99;92.07
18533;BME280;9396;51.510;11.934;2024-03-17T01:42:44;101293.25;;;5.94;92.66
18533;BME280;9396;51.510;11.934;2024-03-17T01:45:36;101295.31;;;5.63;93.16
18533;BME280;9396;51.510;11.934;2024-03-17T01:48:02;101287.72;;;5.58;94.15
18533;BME280;9396;51.510;11.934;2024-03-17T01:50:32;101287.81;;;5.57;93.57
18533;BME280;9396;51.510;11.934;2024-03-17T01:53:01;101294.50;;;5.62;93.62
18533;BME280;9396;51.510;11.934;2024-03-17T01:55:30;101290.34;;;5.58;94.45
18533;BME280;9396;51.510;11.934;2024-03-17T01:57:56;101287.28;;;5.52;94.72
18533;BME280;9396;51.510;11.934;2024-03-17T02:00:22;101275.22;;;5.47;94.54
18533;BME280;9396;51.510;11.934;2024-03-17T02:02:49;101290.19;;;5.47;94.60
18533;BME280;9396;51.510;11.934;2024-03-17T02:05:16;101287.88;;;5.42;94.53
18533;BME280;9396;51.510;11.934;2024-03-17T02:07:43;101297.56;;;5.42;94.29
18533;BME280;9396;51.510;11.934;2024-03-17T02:10:09;101289.44;;;5.45;94.36
18533;BME280;9396;51.510;11.934;2024-03-17T02:12:35;101295.28;;;5.50;95.15
18533;BME280;9396;51.510;11.934;2024-03-17T02:15:02;101298.28;;;5.58;95.26
18533;BME280;9396;51.510;11.934;2024-03-17T02:17:30;101300.16;;;5.56;94.73
18533;BME280;9396;51.510;11.934;2024-03-17T02:20:00;101295.59;;;5.45;94.49
18533;BME280;9396;51.510;11.934;2024-03-17T02:22:27;101307.91;;;5.45;94.41
18533;BME280;9396;51.510;11.934;2024-03-17T02:24:54;101298.53;;;5.41;93.76
18533;BME280;9396;51.510;11.934;2024-03-17T02:27:20;101298.59;;;5.39;93.52
18533;BME280;9396;51.510;11.934;2024-03-17T02:29:46;101292.50;;;5.39;93.51
18533;BME280;9396;51.510;11.934;2024-03-17T02:32:12;101304.56;;;5.29;94.07
18533;BME280;9396;51.510;11.934;2024-03-17T02:34:39;101295.72;;;5.30;93.89
18533;BME280;9396;51.510;11.934;2024-03-17T02:37:05;101296.50;;;5.32;94.16
18533;BME280;9396;51.510;11.934;2024-03-17T02:39:33;101289.50;;;5.31;93.88
18533;BME280;9396;51.510;11.934;2024-03-17T02:42:00;101293.63;;;5.35;94.76
18533;BME280;9396;51.510;11.934;2024-03-17T02:44:28;101299.47;;;5.40;94.39
18533;BME280;9396;51.510;11.934;2024-03-17T02:46:54;101291.91;;;5.48;95.26
18533;BME280;9396;51.510;11.934;2024-03-17T02:49:21;101291.91;;;5.48;94.50
18533;BME280;9396;51.510;11.934;2024-03-17T02:51:47;101293.59;;;5.49;94.35
18533;BME280;9396;51.510;11.934;2024-03-17T02:54:14;101292.09;;;5.45;94.41
18533;BME280;9396;51.510;11.934;2024-03-17T02:56:42;101293.16;;;5.42;95.18
18533;BME280;9396;51.510;11.934;2024-03-17T02:59:08;101287.97;;;5.41;95.07
18533;BME280;9396;51.510;11.934;2024-03-17T03:01:34;101282.72;;;5.41;94.93
18533;BME280;9396;51.510;11.934;2024-03-17T03:04:01;101291.44;;;5.41;95.63
18533;BME280;9396;51.510;11.934;2024-03-17T03:06:27;101292.84;;;5.47;95.24
18533;BME280;9396;51.510;11.934;2024-03-17T03:08:54;101288.81;;;5.41;95.17
18533;BME280;9396;51.510;11.934;2024-03-17T03:11:20;101290.78;;;5.38;95.13
18533;BME280;9396;51.510;11.934;2024-03-17T03:13:48;101286.47;;;5.37;95.61
18533;BME280;9396;51.510;11.934;2024-03-17T03:16:14;101286.59;;;5.35;94.92
18533;BME280;9396;51.510;11.934;2024-03-17T03:18:41;101286.88;;;5.31;95.12
18533;BME280;9396;51.510;11.934;2024-03-17T03:21:09;101295.53;;;5.33;95.14
18533;BME280;9396;51.510;11.934;2024-03-17T03:23:36;101297.22;;;5.34;94.51
18533;BME280;9396;51.510;11.934;2024-03-17T03:26:03;101286.38;;;5.38;94.58
18533;BME280;9396;51.510;11.934;2024-03-17T03:28:31;101287.50;;;5.34;93.85
18533;BME280;9396;51.510;11.934;2024-03-17T03:31:00;101284.72;;;5.23;93.51
18533;BME280;9396;51.510;11.934;2024-03-17T03:33:27;101289.63;;;5.15;93.95
18533;BME280;9396;51.510;11.934;2024-03-17T03:35:54;101283.44;;;5.02;93.23
18533;BME280;9396;51.510;11.934;2024-03-17T03:38:21;101281.50;;;4.92;93.01
18533;BME280;9396;51.510;11.934;2024-03-17T03:40:48;101279.25;;;4.72;93.19
18533;BME280;9396;51.510;11.934;2024-03-17T03:43:15;101288.38;;;4.52;93.69
18533;BME280;9396;51.510;11.934;2024-03-17T03:45:43;101297.13;;;4.53;93.80
18533;BME280;9396;51.510;11.934;2024-03-17T03:48:11;101292.16;;;4.48;94.70
18533;BME280;9396;51.510;11.934;2024-03-17T03:50:40;101291.28;;;4.48;94.67
18533;BME280;9396;51.510;11.934;2024-03-17T03:53:06;101289.09;;;4.26;94.72
18533;BME280;9396;51.510;11.934;2024-03-17T03:55:33;101292.34;;;4.01;95.41
18533;BME280;9396;51.510;11.934;2024-03-17T03:58:00;101293.97;;;3.74;97.43
18533;BME280;9396;51.510;11.934;2024-03-17T04:00:28;101291.38;;;3.88;97.80
18533;BME280;9396;51.510;11.934;2024-03-17T04:02:58;101299.06;;;3.77;98.48
18533;BME280;9396;51.510;11.934;2024-03-17T04:05:26;101290.59;;;3.57;98.87
18533;BME280;9396;51.510;11.934;2024-03-17T04:07:53;101296.34;;;3.63;99.88
18533;BME280;9396;51.510;11.934;2024-03-17T04:10:20;101292.03;;;3.92;99.85
18533;BME280;9396;51.510;11.934;2024-03-17T04:12:48;101288.06;;;4.14;98.87
18533;BME280;9396;51.510;11.934;2024-03-17T04:15:15;101291.28;;;4.19;97.92
18533;BME280;9396;51.510;11.934;2024-03-17T04:17:41;101303.47;;;4.20;97.68
18533;BME280;9396;51.510;11.934;2024-03-17T04:20:09;101301.75;;;3.91;97.99
18533;BME280;9396;51.510;11.934;2024-03-17T04:22:40;101300.72;;;4.08;98.81
18533;BME280;9396;51.510;11.934;2024-03-17T04:25:08;101299.16;;;4.19;98.63
18533;BME280;9396;51.510;11.934;2024-03-17T04:27:35;101300.94;;;4.19;97.83
18533;BME280;9396;51.510;11.934;2024-03-17T04:30:01;101306.69;;;4.25;97.89
18533;BME280;9396;51.510;11.934;2024-03-17T04:32:31;101312.81;;;3.82;97.83
18533;BME280;9396;51.510;11.934;2024-03-17T04:34:58;101314.13;;;3.89;98.57
18533;BME280;9396;51.510;11.934;2024-03-17T04:37:24;101315.19;;;4.01;98.01
18533;BME280;9396;51.510;11.934;2024-03-17T04:39:52;101310.25;;;3.81;98.06
18533;BME280;9396;51.510;11.934;2024-03-17T04:42:22;101310.47;;;3.92;98.50
18533;BME280;9396;51.510;11.934;2024-03-17T04:44:49;101312.84;;;3.96;98.04
18533;BME280;9396;51.510;11.934;2024-03-17T04:47:16;101315.09;;;4.02;97.85
18533;BME280;9396;51.510;11.934;2024-03-17T04:49:44;101297.00;;;3.82;97.72
18533;BME280;9396;51.510;11.934;2024-03-17T04:52:11;101313.03;;;3.93;97.82
18533;BME280;9396;51.510;11.934;2024-03-17T04:54:38;101311.06;;;3.97;97.83
18533;BME280;9396;51.510;11.934;2024-03-17T04:57:09;101311.94;;;3.82;97.34
18533;BME280;9396;51.510;11.934;2024-03-17T04:59:36;101311.50;;;3.89;97.35
18533;BME280;9396;51.510;11.934;2024-03-17T05:02:04;101313.75;;;3.95;97.51
18533;BME280;9396;51.510;11.934;2024-03-17T05:04:30;101318.78;;;3.39;98.23
18533;BME280;9396;51.510;11.934;2024-03-17T05:06:57;101316.06;;;3.56;98.87
18533;BME280;9396;51.510;11.934;2024-03-17T05:09:23;101326.50;;;3.58;98.78
18533;BME280;9396;51.510;11.934;2024-03-17T05:11:50;101332.84;;;3.69;98.99
18533;BME280;9396;51.510;11.934;2024-03-17T05:14:19;101318.22;;;3.79;98.63
18533;BME280;9396;51.510;11.934;2024-03-17T05:16:48;101332.13;;;3.97;98.31
18533;BME280;9396;51.510;11.934;2024-03-17T05:19:15;101324.53;;;3.77;97.58
18533;BME280;9396;51.510;11.934;2024-03-17T05:21:42;101338.00;;;3.71;97.71
18533;BME280;9396;51.510;11.934;2024-03-17T05:24:10;101333.53;;;3.57;97.92
18533;BME280;9396;51.510;11.934;2024-03-17T05:26:36;101334.03;;;3.64;98.07
18533;BME280;9396;51.510;11.934;2024-03-17T05:29:03;101335.38;;;3.71;98.05
18533;BME280;9396;51.510;11.934;2024-03-17T05:31:31;101346.56;;;3.74;97.98
18533;BME280;9396;51.510;11.934;2024-03-17T05:33:57;101337.25;;;3.84;98.13
18533;BME280;9396;51.510;11.934;2024-03-17T05:36:24;101344.41;;;3.51;98.60
18533;BME280;9396;51.510;11.934;2024-03-17T05:38:50;101345.00;;;3.72;98.74
18533;BME280;9396;51.510;11.934;2024-03-17T05:41:17;101357.69;;;3.79;98.63
18533;BME280;9396;51.510;11.934;2024-03-17T05:43:44;101352.19;;;3.84;98.61
18533;BME280;9396;51.510;11.934;2024-03-17T05:46:11;101352.00;;;3.87;98.27
18533;BME280;9396;51.510;11.934;2024-03-17T05:48:40;101360.59;;;3.75;98.22
18533;BME280;9396;51.510;11.934;2024-03-17T05:51:08;101366.19;;;3.69;98.67
18533;BME280;9396;51.510;11.934;2024-03-17T05:53:36;101360.91;;;3.84;98.80
18533;BME280;9396;51.510;11.934;2024-03-17T05:56:04;101361.47;;;4.05;98.71
18533;BME280;9396;51.510;11.934;2024-03-17T05:58:33;101362.09;;;3.94;98.14
18533;BME280;9396;51.510;11.934;2024-03-17T06:01:02;101365.06;;;3.88;98.61
18533;BME280;9396;51.510;11.934;2024-03-17T06:03:29;101375.38;;;4.07;98.61
18533;BME280;9396;51.510;11.934;2024-03-17T06:05:58;101377.78;;;4.25;98.44
18533;BME280;9396;51.510;11.934;2024-03-17T06:08:25;101377.91;;;4.38;98.27
18533;BME280;9396;51.510;11.934;2024-03-17T06:10:51;101378.13;;;4.49;98.13
18533;BME280;9396;51.510;11.934;2024-03-17T06:13:18;101391.53;;;4.30;96.97
18533;BME280;9396;51.510;11.934;2024-03-17T06:15:44;101390.59;;;4.31;97.31
18533;BME280;9396;51.510;11.934;2024-03-17T06:18:12;101386.97;;;4.18;97.13
18533;BME280;9396;51.510;11.934;2024-03-17T06:20:40;101392.84;;;4.23;98.00
18533;BME280;9396;51.510;11.934;2024-03-17T06:23:10;101380.59;;;4.22;97.70
18533;BME280;9396;51.510;11.934;2024-03-17T06:25:40;101386.53;;;4.26;98.99
18533;BME280;9396;51.510;11.934;2024-03-17T06:28:07;101393.47;;;4.57;98.97
18533;BME280;9396;51.510;11.934;2024-03-17T06:30:34;101391.22;;;4.21;98.78
18533;BME280;9396;51.510;11.934;2024-03-17T06:33:01;101390.44;;;4.49;98.76
18533;BME280;9396;51.510;11.934;2024-03-17T06:35:28;101396.44;;;4.80;97.84
18533;BME280;9396;51.510;11.934;2024-03-17T06:37:58;101394.56;;;4.96;97.65
18533;BME280;9396;51.510;11.934;2024-03-17T06:40:26;101394.56;;;4.82;96.56
18533;BME280;9396;51.510;11.934;2024-03-17T06:42:53;101393.50;;;4.99;96.82
18533;BME280;9396;51.510;11.934;2024-03-17T06:45:20;101400.28;;;5.17;96.87
18533;BME280;9396;51.510;11.934;2024-03-17T06:47:46;101384.84;;;5.25;96.52
18533;BME280;9396;51.510;11.934;2024-03-17T06:50:13;101388.97;;;5.29;95.84
18533;BME280;9396;51.510;11.934;2024-03-17T06:52:40;101385.94;;;5.49;97.22
18533;BME280;9396;51.510;11.934;2024-03-17T06:55:07;101377.06;;;5.64;96.35
18533;BME280;9396;51.510;11.934;2024-03-17T06:57:35;101390.00;;;5.81;97.26
18533;BME280;9396;51.510;11.934;2024-03-17T07:00:01;101381.75;;;6.26;100.00
18533;BME280;9396;51.510;11.934;2024-03-17T07:02:30;101387.56;;;7.32;98.86
18533;BME280;9396;51.510;11.934;2024-03-17T07:04:57;101386.13;;;8.11;90.95
18533;BME280;9396;51.510;11.934;2024-03-17T07:07:23;101381.03;;;8.08;86.14
18533;BME280;9396;51.510;11.934;2024-03-17T07:09:52;101377.94;;;9.06;85.28
18533;BME280;9396;51.510;11.934;2024-03-17T07:12:19;101388.38;;;8.74;81.18
18533;BME280;9396;51.510;11.934;2024-03-17T07:14:49;101391.25;;;8.02;83.50
18533;BME280;9396;51.510;11.934;2024-03-17T07:17:16;101400.25;;;9.47;83.18
18533;BME280;9396;51.510;11.934;2024-03-17T07:19:43;101387.22;;;9.55;79.92
18533;BME280;9396;51.510;11.934;2024-03-17T07:22:09;101385.16;;;10.02;78.88
18533;BME280;9396;51.510;11.934;2024-03-17T07:24:36;101392.31;;;9.90;78.02
18533;BME280;9396;51.510;11.934;2024-03-17T07:27:03;101395.56;;;9.94;78.82
18533;BME280;9396;51.510;11.934;2024-03-17T07:29:29;101363.44;;;9.43;79.20
18533;BME280;9396;51.510;11.934;2024-03-17T07:31:57;101397.09;;;9.64;80.98
18533;BME280;9396;51.510;11.934;2024-03-17T07:34:24;101387.25;;;9.87;80.98
18533;BME280;9396;51.510;11.934;2024-03-17T07:36:50;101385.97;;;10.13;81.38
18533;BME280;9396;51.510;11.934;2024-03-17T07:39:17;101402.81;;;9.38;83.29
18533;BME280;9396;51.510;11.934;2024-03-17T07:41:44;101403.78;;;9.15;84.47
18533;BME280;9396;51.510;11.934;2024-03-17T07:44:11;101397.28;;;8.62;83.14
18533;BME280;9396;51.510;11.934;2024-03-17T07:46:37;101406.00;;;8.29;84.84
18533;BME280;9396;51.510;11.934;2024-03-17T07:49:06;101404.34;;;7.80;86.33
18533;BME280;9396;51.510;11.934;2024-03-17T07:51:33;101398.13;;;8.28;87.21
18533;BME280;9396;51.510;11.934;2024-03-17T07:54:00;101390.50;;;8.58;87.05
18533;BME280;9396;51.510;11.934;2024-03-17T07:56:26;101397.53;;;8.59;87.35
18533;BME280;9396;51.510;11.934;2024-03-17T07:58:53;101394.53;;;8.29;86.72
18533;BME280;9396;51.510;11.934;2024-03-17T08:01:20;101393.94;;;8.13;87.49
18533;BME280;9396;51.510;11.934;2024-03-17T08:03:46;101388.53;;;7.91;87.75
18533;BME280;9396;51.510;11.934;2024-03-17T08:06:16;101398.97;;;7.45;88.71
18533;BME280;9396;51.510;11.934;2024-03-17T08:08:42;101406.25;;;7.54;90.29
18533;BME280;9396;51.510;11.934;2024-03-17T08:11:09;101392.28;;;7.88;91.36
18533;BME280;9396;51.510;11.934;2024-03-17T08:13:35;101393.59;;;8.17;90.87
18533;BME280;9396;51.510;11.934;2024-03-17T08:16:03;101396.63;;;8.36;88.85
18533;BME280;9396;51.510;11.934;2024-03-17T08:18:31;101387.06;;;8.34;88.80
18533;BME280;9396;51.510;11.934;2024-03-17T08:21:00;101388.31;;;8.41;89.05
18533;BME280;9396;51.510;11.934;2024-03-17T08:23:28;101386.38;;;7.96;92.29
18533;BME280;9396;51.510;11.934;2024-03-17T08:25:54;101386.38;;;8.43;91.19
18533;BME280;9396;51.510;11.934;2024-03-17T08:28:21;101378.56;;;8.41;89.43
18533;BME280;9396;51.510;11.934;2024-03-17T08:30:52;101369.41;;;8.56;91.45
18533;BME280;9396;51.510;11.934;2024-03-17T08:33:19;101376.19;;;8.60;88.98
18533;BME280;9396;51.510;11.934;2024-03-17T08:35:52;101368.50;;;8.91;88.52
18533;BME280;9396;51.510;11.934;2024-03-17T08:38:19;101370.34;;;9.23;87.82
18533;BME280;9396;51.510;11.934;2024-03-17T08:40:47;101352.84;;;9.21;86.63
18533;BME280;9396;51.510;11.934;2024-03-17T08:43:14;101361.28;;;9.26;87.04
18533;BME280;9396;51.510;11.934;2024-03-17T08:45:41;101371.03;;;9.36;85.02
18533;BME280;9396;51.510;11.934;2024-03-17T08:48:08;101366.69;;;9.57;85.25
18533;BME280;9396;51.510;11.934;2024-03-17T08:50:35;101363.63;;;9.62;85.97
18533;BME280;9396;51.510;11.934;2024-03-17T08:53:02;101365.50;;;9.50;85.71
18533;BME280;9396;51.510;11.934;2024-03-17T08:55:29;101368.75;;;9.21;84.04
18533;BME280;9396;51.510;11.934;2024-03-17T08:57:57;101365.25;;;9.20;84.94
18533;BME280;9396;51.510;11.934;2024-03-17T09:00:23;101364.38;;;9.53;85.02
18533;BME280;9396;51.510;11.934;2024-03-17T09:02:50;101357.03;;;9.45;84.02
18533;BME280;9396;51.510;11.934;2024-03-17T09:05:17;101357.03;;;9.45;83.49
18533;BME280;9396;51.510;11.934;2024-03-17T09:07:43;101351.56;;;9.58;84.09
18533;BME280;9396;51.510;11.934;2024-03-17T09:10:10;101349.63;;;9.60;84.31
18533;BME280;9396;51.510;11.934;2024-03-17T09:12:38;101346.41;;;9.45;85.06
18533;BME280;9396;51.510;11.934;2024-03-17T09:15:08;101339.63;;;9.95;85.30
18533;BME280;9396;51.510;11.934;2024-03-17T09:17:37;101337.47;;;9.89;82.17
18533;BME280;9396;51.510;11.934;2024-03-17T09:20:05;101342.38;;;10.05;82.37
18533;BME280;9396;51.510;11.934;2024-03-17T09:22:36;101342.19;;;10.28;81.19
18533;BME280;9396;51.510;11.934;2024-03-17T09:25:05;101340.78;;;10.02;81.36
18533;BME280;9396;51.510;11.934;2024-03-17T09:27:32;101343.34;;;10.04;81.93
18533;BME280;9396;51.510;11.934;2024-03-17T09:29:59;101346.47;;;9.77;83.85
18533;BME280;9396;51.510;11.934;2024-03-17T09:32:27;101339.00;;;9.71;83.42
18533;BME280;9396;51.510;11.934;2024-03-17T09:34:53;101338.25;;;9.80;82.62
18533;BME280;9396;51.510;11.934;2024-03-17T09:37:20;101340.72;;;9.61;83.01
18533;BME280;9396;51.510;11.934;2024-03-17T09:39:47;101324.53;;;9.64;83.25
18533;BME280;9396;51.510;11.934;2024-03-17T09:42:17;101334.13;;;9.76;83.83
18533;BME280;9396;51.510;11.934;2024-03-17T09:44:45;101336.53;;;9.79;82.32
18533;BME280;9396;51.510;11.934;2024-03-17T09:47:18;101333.88;;;9.79;80.87
18533;BME280;9396;51.510;11.934;2024-03-17T09:49:46;101338.09;;;9.82;77.79
18533;BME280;9396;51.510;11.934;2024-03-17T09:52:19;101333.44;;;9.63;77.84
18533;BME280;9396;51.510;11.934;2024-03-17T09:54:46;101337.81;;;9.53;81.32
18533;BME280;9396;51.510;11.934;2024-03-17T09:57:16;101325.47;;;9.63;80.75
18533;BME280;9396;51.510;11.934;2024-03-17T09:59:50;101333.53;;;9.72;80.00
18533;BME280;9396;51.510;11.934;2024-03-17T10:02:17;101337.78;;;9.75;78.76
18533;BME280;9396;51.510;11.934;2024-03-17T10:04:45;101335.47;;;9.70;79.35
18533;BME280;9396;51.510;11.934;2024-03-17T10:07:12;101336.94;;;9.63;80.46
18533;BME280;9396;51.510;11.934;2024-03-17T10:09:39;101339.53;;;9.54;81.24
18533;BME280;9396;51.510;11.934;2024-03-17T10:12:25;101328.72;;;9.66;83.61
18533;BME280;9396;51.510;11.934;2024-03-17T10:14:57;101321.84;;;9.75;78.86
18533;BME280;9396;51.510;11.934;2024-03-17T10:17:29;101317.84;;;9.81;77.99
18533;BME280;9396;51.510;11.934;2024-03-17T10:20:11;101333.38;;;9.85;79.44
18533;BME280;9396;51.510;11.934;2024-03-17T10:22:37;101322.75;;;9.85;75.73
18533;BME280;9396;51.510;11.934;2024-03-17T10:25:04;101327.75;;;9.79;75.35
18533;BME280;9396;51.510;11.934;2024-03-17T10:27:32;101323.78;;;9.73;74.28
18533;BME280;9396;51.510;11.934;2024-03-17T10:29:58;101326.78;;;9.68;75.40
18533;BME280;9396;51.510;11.934;2024-03-17T10:32:25;101324.94;;;9.80;77.23
18533;BME280;9396;51.510;11.934;2024-03-17T10:34:52;101323.59;;;9.86;77.96
18533;BME280;9396;51.510;11.934;2024-03-17T10:37:20;101320.66;;;9.68;79.36
18533;BME280;9396;51.510;11.934;2024-03-17T10:39:50;101333.97;;;9.57;80.22
18533;BME280;9396;51.510;11.934;2024-03-17T10:42:24;101334.22;;;9.54;79.93
18533;BME280;9396;51.510;11.934;2024-03-17T10:44:53;101321.03;;;9.52;81.01
18533;BME280;9396;51.510;11.934;2024-03-17T10:47:22;101324.94;;;9.48;80.72
18533;BME280;9396;51.510;11.934;2024-03-17T10:49:50;101315.44;;;9.66;80.20
18533;BME280;9396;51.510;11.934;2024-03-17T10:52:17;101308.44;;;9.65;80.17
18533;BME280;9396;51.510;11.934;2024-03-17T10:54:47;101317.25;;;9.77;80.91
18533;BME280;9396;51.510;11.934;2024-03-17T10:57:24;101313.41;;;10.02;80.75
18533;BME280;9396;51.510;11.934;2024-03-17T10:59:53;101310.59;;;10.14;80.69
18533;BME280;9396;51.510;11.934;2024-03-17T11:02:22;101299.50;;;10.30;78.67
18533;BME280;9396;51.510;11.934;2024-03-17T11:04:51;101307.41;;;10.20;76.58
18533;BME280;9396;51.510;11.934;2024-03-17T11:07:19;101310.78;;;10.22;77.46
18533;BME280;9396;51.510;11.934;2024-03-17T11:09:49;101308.66;;;10.16;78.16
18533;BME280;9396;51.510;11.934;2024-03-17T11:12:39;101309.59;;;10.15;78.35
18533;BME280;9396;51.510;11.934;2024-03-17T11:15:37;101302.75;;;10.13;77.14
18533;BME280;9396;51.510;11.934;2024-03-17T11:18:36;101299.28;;;9.90;75.18
18533;BME280;9396;51.510;11.934;2024-03-17T11:21:05;101305.25;;;9.83;74.84
18533;BME280;9396;51.510;11.934;2024-03-17T11:23:36;101301.47;;;9.64;75.32
18533;BME280;9396;51.510;11.934;2024-03-17T11:26:05;101297.41;;;9.81;76.08
18533;BME280;9396;51.510;11.934;2024-03-17T11:28:51;101302.53;;;9.73;75.09
18533;BME280;9396;51.510;11.934;2024-03-17T11:31:42;101296.44;;;9.82;76.43
18533;BME280;9396;51.510;11.934;2024-03-17T11:34:34;101296.50;;;9.92;76.64
18533;BME280;9396;51.510;11.934;2024-03-17T11:37:02;101289.25;;;9.94;76.50
18533;BME280;9396;51.510;11.934;2024-03-17T11:39:49;101292.34;;;10.10;76.77
18533;BME280;9396;51.510;11.934;2024-03-17T11:42:19;101270.44;;;10.17;78.76
18533;BME280;9396;51.510;11.934;2024-03-17T11:45:06;101268.28;;;10.11;76.73
18533;BME280;9396;51.510;11.934;2024-03-17T11:47:39;101268.19;;;10.13;77.08
18533;BME280;9396;51.510;11.934;2024-03-17T11:50:08;101268.38;;;10.21;78.51
18533;BME280;9396;51.510;11.934;2024-03-17T11:52:36;101264.44;;;10.04;74.89
18533;BME280;9396;51.510;11.934;2024-03-17T11:55:15;101274.16;;;9.94;75.97
18533;BME280;9396;51.510;11.934;2024-03-17T11:57:43;101272.72;;;9.90;77.33
18533;BME280;9396;51.510;11.934;2024-03-17T12:00:19;101278.75;;;9.92;76.99
18533;BME280;9396;51.510;11.934;2024-03-17T12:02:48;101270.50;;;9.95;78.00
18533;BME280;9396;51.510;11.934;2024-03-17T12:05:15;101271.38;;;9.96;77.47
18533;BME280;9396;51.510;11.934;2024-03-17T12:07:42;101268.84;;;9.94;76.34
18533;BME280;9396;51.510;11.934;2024-03-17T12:10:10;101268.94;;;10.04;78.52
18533;BME280;9396;51.510;11.934;2024-03-17T12:12:35;101269.75;;;10.04;76.79
18533;BME280;9396;51.510;11.934;2024-03-17T12:15:16;101259.38;;;10.01;74.37
18533;BME280;9396;51.510;11.934;2024-03-17T12:17:43;101257.44;;;10.03;73.65
18533;BME280;9396;51.510;11.934;2024-03-17T12:20:16;101252.75;;;9.96;74.67
18533;BME280;9396;51.510;11.934;2024-03-17T12:22:43;101255.59;;;10.15;75.45
18533;BME280;9396;51.510;11.934;2024-03-17T12:25:16;101249.84;;;9.99;74.00
18533;BME280;9396;51.510;11.934;2024-03-17T12:27:44;101242.44;;;10.02;74.19
18533;BME280;9396;51.510;11.934;2024-03-17T12:30:13;101242.94;;;10.07;74.65
18533;BME280;9396;51.510;11.934;2024-03-17T12:32:40;101247.81;;;10.23;75.05
18533;BME280;9396;51.510;11.934;2024-03-17T12:35:12;101247.38;;;10.18;75.17
18533;BME280;9396;51.510;11.934;2024-03-17T12:37:40;101242.88;;;10.18;75.32
18533;BME280;9396;51.510;11.934;2024-03-17T12:40:18;101240.78;;;10.22;77.42
18533;BME280;9396;51.510;11.934;2024-03-17T12:42:47;101242.09;;;10.27;76.24
18533;BME280;9396;51.510;11.934;2024-03-17T12:45:19;101242.69;;;10.10;75.28
18533;BME280;9396;51.510;11.934;2024-03-17T12:47:47;101231.44;;;10.27;74.79
18533;BME280;9396;51.510;11.934;2024-03-17T12:50:13;101223.59;;;10.26;75.13
18533;BME280;9396;51.510;11.934;2024-03-17T12:52:40;101219.16;;;10.26;75.59
18533;BME280;9396;51.510;11.934;2024-03-17T12:55:07;101216.28;;;10.48;74.69
18533;BME280;9396;51.510;11.934;2024-03-17T12:57:53;101203.13;;;10.37;71.38
18533;BME280;9396;51.510;11.934;2024-03-17T13:00:58;101218.22;;;10.37;73.73
18533;BME280;9396;51.510;11.934;2024-03-17T13:03:26;101214.00;;;10.34;73.81
18533;BME280;9396;51.510;11.934;2024-03-17T13:05:53;101206.72;;;10.36;70.85